Time;durP1;ratioP1;P1;durP2;ratioP2;P2;SDS_P1;SDS_P2;PMS_P1;PMS_P2;Temp;Humidity;BMP_temperature;BMP_pressure;BME280_temperature;BME280_humidity;BME280_pressure;Samples;Min_cycle;Max_cycle;Signal;HPM_P1;HPM_P2
2021/12/09 00:00:01;;;;;;;8.52;3.80;;;5.00;99.90;;;;;;2071714;28;20239;-69
2021/12/09 00:01:05;;;;;;;6.20;3.72;;;4.90;99.90;;;;;;2071404;28;20057;-69
2021/12/09 00:02:06;;;;;;;7.50;3.75;;;4.90;99.90;;;;;;2071692;28;20036;-69
2021/12/09 00:03:07;;;;;;;6.05;3.10;;;4.90;99.90;;;;;;2071579;28;20515;-69
2021/12/09 00:04:12;;;;;;;7.95;4.15;;;4.90;99.90;;;;;;2071084;28;20044;-69
2021/12/09 00:05:16;;;;;;;8.48;4.00;;;4.90;99.90;;;;;;2071581;28;20025;-69
2021/12/09 00:06:20;;;;;;;9.75;3.97;;;4.90;99.90;;;;;;2071630;28;20030;-69
2021/12/09 00:07:21;;;;;;;5.82;3.20;;;4.80;99.90;;;;;;2071348;28;20029;-69
2021/12/09 00:08:24;;;;;;;4.38;2.92;;;4.80;99.90;;;;;;2071472;28;20022;-69
2021/12/09 00:09:25;;;;;;;6.97;3.60;;;4.80;99.90;;;;;;2071954;28;20030;-69
2021/12/09 00:10:26;;;;;;;5.47;3.58;;;4.80;99.90;;;;;;2071250;28;20020;-69
2021/12/09 00:11:29;;;;;;;8.13;3.65;;;4.70;99.90;;;;;;2071247;28;20037;-69
2021/12/09 00:12:29;;;;;;;6.68;3.60;;;4.70;99.90;;;;;;2071526;28;20029;-69
2021/12/09 00:13:30;;;;;;;10.27;3.83;;;4.70;99.90;;;;;;2071081;28;20105;-69
2021/12/09 00:14:33;;;;;;;9.13;4.00;;;4.70;99.90;;;;;;2071042;28;20025;-69
2021/12/09 00:15:34;;;;;;;6.68;3.63;;;4.70;99.90;;;;;;2071539;28;20026;-69
2021/12/09 00:16:34;;;;;;;7.10;3.70;;;4.70;99.90;;;;;;2070400;28;20061;-69
2021/12/09 00:17:35;;;;;;;7.38;3.83;;;4.70;99.90;;;;;;2071788;28;20101;-69
2021/12/09 00:18:36;;;;;;;7.20;3.40;;;4.70;99.90;;;;;;2071549;28;20029;-69
2021/12/09 00:19:38;;;;;;;9.63;3.50;;;4.60;99.90;;;;;;2071657;28;20030;-69
2021/12/09 00:20:39;;;;;;;5.85;3.72;;;4.70;99.90;;;;;;2071228;28;20109;-69
2021/12/09 00:21:39;;;;;;;9.63;3.60;;;4.60;99.90;;;;;;2071658;28;20471;-69
2021/12/09 00:22:40;;;;;;;7.05;3.60;;;4.60;99.90;;;;;;2071398;28;20033;-69
2021/12/09 00:23:41;;;;;;;7.57;4.03;;;4.60;99.90;;;;;;2071460;28;20083;-69
2021/12/09 00:24:41;;;;;;;9.05;4.10;;;4.60;99.90;;;;;;2070908;28;20037;-69
2021/12/09 00:25:42;;;;;;;7.15;3.90;;;4.60;99.90;;;;;;2071852;28;20052;-69
2021/12/09 00:26:44;;;;;;;7.35;3.47;;;4.60;99.90;;;;;;2071325;28;20045;-69
2021/12/09 00:27:45;;;;;;;7.38;3.22;;;4.60;99.90;;;;;;2071873;28;20110;-69
2021/12/09 00:28:45;;;;;;;7.25;3.20;;;4.60;99.90;;;;;;2071156;28;20566;-69
2021/12/09 00:29:46;;;;;;;9.68;3.85;;;4.60;99.90;;;;;;2071631;28;20556;-69
2021/12/09 00:30:46;;;;;;;6.97;3.50;;;4.60;99.90;;;;;;2071259;28;20560;-69
2021/12/09 00:31:50;;;;;;;12.15;4.50;;;4.60;99.90;;;;;;2071578;28;20520;-69
2021/12/09 00:32:50;;;;;;;7.13;3.70;;;4.60;99.90;;;;;;2071481;28;20026;-69
2021/12/09 00:33:52;;;;;;;6.97;3.72;;;4.50;99.90;;;;;;2071385;28;20080;-69
2021/12/09 00:34:53;;;;;;;6.78;3.40;;;4.50;99.90;;;;;;2070847;28;20022;-69
2021/12/09 00:35:55;;;;;;;10.05;3.58;;;4.50;99.90;;;;;;2071337;28;20121;-69
2021/12/09 00:37:02;;;;;;;7.97;4.03;;;4.50;99.90;;;;;;2071322;28;20037;-69
2021/12/09 00:38:07;;;;;;;8.20;3.58;;;4.50;99.90;;;;;;2068245;28;20040;-69
2021/12/09 00:39:09;;;;;;;5.82;3.50;;;4.50;99.90;;;;;;2078437;28;20049;-69
2021/12/09 00:40:10;;;;;;;6.65;3.92;;;4.50;99.90;;;;;;2079136;28;20484;-69
2021/12/09 00:41:14;;;;;;;6.32;3.42;;;4.50;99.90;;;;;;2071294;28;20026;-69
2021/12/09 00:42:17;;;;;;;7.35;3.22;;;4.50;99.90;;;;;;2071655;28;20648;-69
2021/12/09 00:43:20;;;;;;;4.65;3.47;;;4.40;99.90;;;;;;2071395;28;20037;-69
2021/12/09 00:44:20;;;;;;;12.07;4.63;;;4.40;99.90;;;;;;2070612;28;20026;-69
2021/12/09 00:45:21;;;;;;;10.07;4.78;;;4.40;99.90;;;;;;2071580;28;20034;-69
2021/12/09 00:46:22;;;;;;;9.27;4.32;;;4.40;99.90;;;;;;2071289;28;20076;-69
2021/12/09 00:47:23;;;;;;;10.13;4.25;;;4.30;99.90;;;;;;2071261;28;20117;-69
2021/12/09 00:48:25;;;;;;;10.38;3.88;;;4.40;99.90;;;;;;2071450;28;20034;-69
2021/12/09 00:49:30;;;;;;;13.25;4.28;;;4.30;99.90;;;;;;2071089;28;20053;-69
2021/12/09 00:50:30;;;;;;;8.90;3.40;;;4.30;99.90;;;;;;2071580;28;20026;-69
2021/12/09 00:51:31;;;;;;;8.73;4.10;;;4.30;99.90;;;;;;2071273;28;20034;-69
2021/12/09 00:52:31;;;;;;;6.45;3.45;;;4.30;99.90;;;;;;2071168;28;20072;-69
2021/12/09 00:53:33;;;;;;;6.28;3.65;;;4.30;99.90;;;;;;2071558;28;20049;-69
2021/12/09 00:54:34;;;;;;;7.13;3.60;;;4.30;99.90;;;;;;2070091;28;20026;-69
2021/12/09 00:55:35;;;;;;;6.90;3.50;;;4.30;99.90;;;;;;2070467;28;20045;-69
2021/12/09 00:56:35;;;;;;;7.47;3.55;;;4.30;99.90;;;;;;2071238;28;20026;-69
2021/12/09 00:57:38;;;;;;;7.40;3.45;;;4.30;99.90;;;;;;2071197;28;20026;-69
2021/12/09 00:58:40;;;;;;;8.05;4.22;;;4.30;99.90;;;;;;2071463;28;20053;-69
2021/12/09 00:59:41;;;;;;;7.55;3.65;;;4.20;99.90;;;;;;2071091;28;20045;-69
2021/12/09 01:00:42;;;;;;;5.72;3.47;;;4.20;99.90;;;;;;2071668;28;20106;-69
2021/12/09 01:01:42;;;;;;;6.65;3.60;;;4.20;99.90;;;;;;2071200;28;20030;-69
2021/12/09 01:02:43;;;;;;;10.43;3.88;;;4.20;99.90;;;;;;2071141;28;20773;-69
2021/12/09 01:03:44;;;;;;;7.40;3.53;;;4.20;99.90;;;;;;2070313;28;20034;-69
2021/12/09 01:04:46;;;;;;;7.78;4.30;;;4.20;99.90;;;;;;2070884;28;20033;-69
2021/12/09 01:05:47;;;;;;;16.08;4.78;;;4.20;99.90;;;;;;2071333;28;20049;-69
2021/12/09 01:06:49;;;;;;;7.35;3.88;;;4.20;99.90;;;;;;2071702;28;20109;-69
2021/12/09 01:07:50;;;;;;;5.88;3.53;;;4.20;99.90;;;;;;2071539;28;20577;-69
2021/12/09 01:08:50;;;;;;;5.45;3.72;;;4.20;99.90;;;;;;2071178;28;20421;-69
2021/12/09 01:09:51;;;;;;;7.93;3.65;;;4.10;99.90;;;;;;2071061;28;20022;-69
2021/12/09 01:10:52;;;;;;;5.40;3.55;;;4.10;99.90;;;;;;2071372;28;20080;-69
2021/12/09 01:11:52;;;;;;;8.70;3.95;;;4.10;99.90;;;;;;2071162;28;20022;-69
2021/12/09 01:12:53;;;;;;;6.15;4.13;;;4.10;99.90;;;;;;2070926;28;20053;-70
2021/12/09 01:13:54;;;;;;;8.07;4.35;;;4.10;99.90;;;;;;2071508;28;20053;-69
2021/12/09 01:14:54;;;;;;;8.43;4.53;;;4.10;99.90;;;;;;2069741;28;20471;-69
2021/12/09 01:15:56;;;;;;;10.68;4.10;;;4.10;99.90;;;;;;2070726;28;20017;-69
2021/12/09 01:16:56;;;;;;;8.70;4.20;;;4.10;99.90;;;;;;2069109;28;20033;-69
2021/12/09 01:17:57;;;;;;;9.95;4.32;;;4.10;99.90;;;;;;2070870;28;20100;-69
2021/12/09 01:18:58;;;;;;;6.85;3.75;;;4.00;99.90;;;;;;2070968;28;20030;-69
2021/12/09 01:19:59;;;;;;;6.10;3.80;;;4.00;99.90;;;;;;2071268;28;20037;-69
2021/12/09 01:21:00;;;;;;;12.32;3.75;;;4.00;99.90;;;;;;2071047;28;20052;-69
2021/12/09 01:22:00;;;;;;;7.63;4.10;;;4.00;99.90;;;;;;2071516;28;20029;-69
2021/12/09 01:23:03;;;;;;;6.72;3.90;;;4.00;99.90;;;;;;2070466;28;20095;-69
2021/12/09 01:24:04;;;;;;;8.43;3.95;;;4.00;99.90;;;;;;2070607;28;20026;-69
2021/12/09 01:25:06;;;;;;;8.73;4.60;;;4.00;99.90;;;;;;2070666;28;20029;-69
2021/12/09 01:26:08;;;;;;;10.23;3.97;;;3.90;99.90;;;;;;2071518;28;20903;-69
2021/12/09 01:27:10;;;;;;;6.88;3.90;;;3.90;99.90;;;;;;2071206;28;20382;-69
2021/12/09 01:28:18;;;;;;;11.90;4.65;;;3.90;99.90;;;;;;2070571;28;20080;-69
2021/12/09 01:29:28;;;;;;;10.93;4.63;;;3.90;99.90;;;;;;2072631;28;20034;-69
2021/12/09 01:30:29;;;;;;;10.45;4.95;;;3.80;99.90;;;;;;2072978;28;20022;-69
2021/12/09 01:31:35;;;;;;;8.65;4.20;;;3.80;99.90;;;;;;2073554;28;20026;-69
2021/12/09 01:32:35;;;;;;;9.27;4.53;;;3.80;99.90;;;;;;2072690;28;20017;-69
2021/12/09 01:33:37;;;;;;;8.73;4.10;;;3.80;99.90;;;;;;2072631;28;20025;-69
2021/12/09 01:34:37;;;;;;;9.07;4.40;;;3.80;99.90;;;;;;2072403;28;20022;-69
2021/12/09 01:35:40;;;;;;;6.28;4.10;;;3.80;99.90;;;;;;2072602;28;20018;-69
2021/12/09 01:36:40;;;;;;;8.88;4.38;;;3.80;99.90;;;;;;2072522;28;20030;-69
2021/12/09 01:37:41;;;;;;;8.30;4.07;;;3.80;99.90;;;;;;2072326;28;20018;-69
2021/12/09 01:38:42;;;;;;;9.60;4.30;;;3.80;99.90;;;;;;2072727;28;20026;-69
2021/12/09 01:39:43;;;;;;;7.30;4.07;;;3.80;99.90;;;;;;2072339;28;20029;-69
2021/12/09 01:40:45;;;;;;;6.80;4.05;;;3.80;99.90;;;;;;2072592;28;20060;-69
2021/12/09 01:41:46;;;;;;;9.80;4.45;;;3.80;99.90;;;;;;2072360;28;20091;-69
2021/12/09 01:42:47;;;;;;;8.77;4.22;;;3.80;99.90;;;;;;2072771;28;20041;-69
2021/12/09 01:43:48;;;;;;;10.05;3.90;;;3.80;99.90;;;;;;2072248;28;20038;-69
2021/12/09 01:44:49;;;;;;;9.25;4.07;;;3.80;99.90;;;;;;2072184;28;20087;-69
2021/12/09 01:46:01;;;;;;;8.98;4.45;;;3.70;99.90;;;;;;2072670;28;20076;-69
2021/12/09 01:47:03;;;;;;;8.43;4.30;;;3.70;99.90;;;;;;2071784;28;20117;-69
2021/12/09 01:48:03;;;;;;;8.02;3.70;;;3.80;99.90;;;;;;2072384;28;20517;-69
2021/12/09 01:49:04;;;;;;;6.95;3.75;;;3.70;99.90;;;;;;2072609;28;20474;-69
2021/12/09 01:50:06;;;;;;;6.78;3.90;;;3.70;99.90;;;;;;2072089;28;20033;-69
2021/12/09 01:51:07;;;;;;;9.82;4.68;;;3.70;99.90;;;;;;2072658;28;20026;-69
2021/12/09 01:52:08;;;;;;;6.95;4.15;;;3.70;99.90;;;;;;2072512;28;20097;-69
2021/12/09 01:53:08;;;;;;;5.47;3.85;;;3.70;99.90;;;;;;2072836;28;20034;-69
2021/12/09 01:54:09;;;;;;;10.90;4.50;;;3.70;99.90;;;;;;2072225;28;20030;-69
2021/12/09 01:55:11;;;;;;;8.30;4.57;;;3.70;99.90;;;;;;2072224;28;20022;-69
2021/12/09 01:56:21;;;;;;;6.28;4.28;;;3.70;99.90;;;;;;2072320;28;20018;-69
2021/12/09 01:57:22;;;;;;;8.13;4.20;;;3.70;99.90;;;;;;2072548;28;20034;-69
2021/12/09 01:58:22;;;;;;;5.05;3.45;;;3.70;99.90;;;;;;2072569;28;20030;-69
2021/12/09 01:59:23;;;;;;;10.23;4.90;;;3.70;99.90;;;;;;2072857;28;20567;-69
2021/12/09 02:00:29;;;;;;;9.30;4.65;;;3.60;99.90;;;;;;2072822;28;20109;-68
2021/12/09 02:01:31;;;;;;;5.15;4.00;;;3.60;99.90;;;;;;2072705;28;20029;-69
2021/12/09 02:02:32;;;;;;;8.20;4.35;;;3.60;99.90;;;;;;2072117;28;20029;-69
2021/12/09 02:03:33;;;;;;;11.70;4.25;;;3.60;99.90;;;;;;2072623;28;20022;-68
2021/12/09 02:04:34;;;;;;;16.35;5.38;;;3.60;99.90;;;;;;2071890;28;20025;-69
2021/12/09 02:05:40;;;;;;;10.73;4.82;;;3.60;99.90;;;;;;2072199;28;20463;-68
2021/12/09 02:06:42;;;;;;;9.95;4.85;;;3.60;99.90;;;;;;2072431;28;20021;-69
2021/12/09 02:07:43;;;;;;;7.22;5.15;;;3.50;99.90;;;;;;2072756;28;20018;-69
2021/12/09 02:08:44;;;;;;;10.55;4.97;;;3.50;99.90;;;;;;2072295;28;20084;-69
2021/12/09 02:09:44;;;;;;;8.18;5.22;;;3.50;99.90;;;;;;2072273;28;20155;-69
2021/12/09 02:10:47;;;;;;;10.00;5.30;;;3.50;99.90;;;;;;2072211;28;20069;-69
2021/12/09 02:11:48;;;;;;;11.65;5.32;;;3.50;99.90;;;;;;2072522;28;20391;-69
2021/12/09 02:12:51;;;;;;;11.82;5.20;;;3.50;99.90;;;;;;2072211;28;20026;-69
2021/12/09 02:13:55;;;;;;;9.75;4.95;;;3.50;99.90;;;;;;2072168;28;20041;-69
2021/12/09 02:14:59;;;;;;;10.52;4.93;;;3.50;99.90;;;;;;2065382;28;20512;-69
2021/12/09 02:16:00;;;;;;;9.70;5.28;;;3.50;99.90;;;;;;2072434;28;20137;-69
2021/12/09 02:17:00;;;;;;;10.45;5.03;;;3.50;99.90;;;;;;2072291;28;20022;-69
2021/12/09 02:18:06;;;;;;;7.20;4.95;;;3.50;99.90;;;;;;2072623;28;20125;-69
2021/12/09 02:19:10;;;;;;;9.88;5.53;;;3.50;99.90;;;;;;2072588;28;20069;-69
2021/12/09 02:20:11;;;;;;;10.45;4.78;;;3.50;99.90;;;;;;2072617;28;20030;-69
2021/12/09 02:21:16;;;;;;;11.52;5.25;;;3.50;99.90;;;;;;2072506;28;20026;-69
2021/12/09 02:22:17;;;;;;;10.50;5.05;;;3.50;99.90;;;;;;2072722;28;20035;-69
2021/12/09 02:23:18;;;;;;;10.02;4.30;;;3.50;99.90;;;;;;2072146;28;20021;-69
2021/12/09 02:24:18;;;;;;;11.15;4.70;;;3.50;99.90;;;;;;2072455;28;20497;-69
2021/12/09 02:25:19;;;;;;;12.70;5.30;;;3.50;99.90;;;;;;2071655;28;20030;-69
2021/12/09 02:26:27;;;;;;;9.77;4.97;;;3.50;99.90;;;;;;2071757;28;20070;-69
2021/12/09 02:27:27;;;;;;;11.57;4.78;;;3.50;99.90;;;;;;2071779;28;20026;-69
2021/12/09 02:28:28;;;;;;;10.82;4.53;;;3.50;99.90;;;;;;2072510;28;20080;-69
2021/12/09 02:29:29;;;;;;;9.80;4.70;;;3.50;99.90;;;;;;2071778;28;20068;-69
2021/12/09 02:30:29;;;;;;;8.68;4.45;;;3.50;99.90;;;;;;2071217;28;20401;-69
2021/12/09 02:31:31;;;;;;;9.18;4.78;;;3.50;99.90;;;;;;2071871;28;20462;-69
2021/12/09 02:32:31;;;;;;;12.13;5.07;;;3.50;99.90;;;;;;2067689;28;20030;-69
2021/12/09 02:33:32;;;;;;;11.85;4.93;;;3.50;99.90;;;;;;2074693;28;20025;-69
2021/12/09 02:34:34;;;;;;;12.00;4.93;;;3.50;99.90;;;;;;2073379;28;20056;-69
2021/12/09 02:35:36;;;;;;;9.82;4.90;;;3.50;99.90;;;;;;2076912;28;20075;-69
2021/12/09 02:36:40;;;;;;;10.43;4.40;;;3.50;99.90;;;;;;2072905;28;20422;-69
2021/12/09 02:37:42;;;;;;;11.70;4.07;;;3.50;99.90;;;;;;2072342;28;20022;-69
2021/12/09 02:38:46;;;;;;;11.73;5.10;;;3.50;99.90;;;;;;2072301;28;20032;-69
2021/12/09 02:39:47;;;;;;;10.02;5.00;;;3.50;99.90;;;;;;2071950;28;20030;-69
2021/12/09 02:40:49;;;;;;;7.38;4.60;;;3.50;99.90;;;;;;2072391;28;20032;-69
2021/12/09 02:41:50;;;;;;;11.38;5.20;;;3.50;99.90;;;;;;2068131;28;20060;-69
2021/12/09 02:42:51;;;;;;;10.05;4.65;;;3.50;99.90;;;;;;2071725;28;20482;-69
2021/12/09 02:44:02;;;;;;;12.10;4.80;;;3.50;99.90;;;;;;2072304;28;20395;-69
2021/12/09 02:45:07;;;;;;;10.65;4.45;;;3.50;99.90;;;;;;2071367;28;20037;-69
2021/12/09 02:46:08;;;;;;;11.13;4.80;;;3.50;99.90;;;;;;2071543;28;20026;-69
2021/12/09 02:47:08;;;;;;;9.32;5.38;;;3.50;99.90;;;;;;2072337;28;20084;-69
2021/12/09 02:48:09;;;;;;;11.45;4.93;;;3.50;99.90;;;;;;2072410;28;20030;-69
2021/12/09 02:49:17;;;;;;;15.77;6.05;;;3.50;99.90;;;;;;2071815;28;20378;-69
2021/12/09 02:50:17;;;;;;;9.77;4.63;;;3.60;99.90;;;;;;2072071;28;20122;-69
2021/12/09 02:51:18;;;;;;;12.55;5.35;;;3.60;99.90;;;;;;2072006;28;20418;-69
2021/12/09 02:52:19;;;;;;;15.65;5.05;;;3.50;99.90;;;;;;2072249;28;20021;-69
2021/12/09 02:53:20;;;;;;;12.93;5.03;;;3.50;99.90;;;;;;2072231;28;20370;-69
2021/12/09 02:54:24;;;;;;;10.10;4.95;;;3.60;99.90;;;;;;2071690;28;20026;-69
2021/12/09 02:55:24;;;;;;;8.55;4.57;;;3.60;99.90;;;;;;2072096;28;20532;-69
2021/12/09 02:56:25;;;;;;;11.65;5.47;;;3.60;99.90;;;;;;2072305;28;20425;-69
2021/12/09 02:57:26;;;;;;;11.63;5.03;;;3.60;99.90;;;;;;2071958;28;20108;-69
2021/12/09 02:58:26;;;;;;;13.13;5.07;;;3.60;99.90;;;;;;2071557;28;20034;-69
2021/12/09 02:59:27;;;;;;;13.45;5.63;;;3.60;99.90;;;;;;2072147;28;20124;-69
2021/12/09 03:00:29;;;;;;;9.20;5.13;;;3.60;99.90;;;;;;2071920;28;20065;-69
2021/12/09 03:01:33;;;;;;;10.77;5.03;;;3.50;99.90;;;;;;2072174;28;20042;-69
2021/12/09 03:02:34;;;;;;;10.27;5.22;;;3.60;99.90;;;;;;2079545;28;20604;-69
2021/12/09 03:03:35;;;;;;;13.68;5.55;;;3.60;99.90;;;;;;2079027;28;20444;-69
2021/12/09 03:04:53;;;;;;;11.07;5.53;;;3.60;99.90;;;;;;2071445;28;20034;-69
2021/12/09 03:05:57;;;;;;;11.75;5.60;;;3.60;99.90;;;;;;2071717;28;20378;-69
2021/12/09 03:06:57;;;;;;;8.05;4.80;;;3.50;99.90;;;;;;2072281;28;20022;-69
2021/12/09 03:08:00;;;;;;;12.38;5.53;;;3.50;99.90;;;;;;2072139;28;20433;-69
2021/12/09 03:09:08;;;;;;;9.73;5.25;;;3.50;99.90;;;;;;2071875;28;20045;-68
2021/12/09 03:10:20;;;;;;;15.38;5.40;;;3.50;99.90;;;;;;2071583;28;20367;-69
2021/12/09 03:11:22;;;;;;;19.83;6.28;;;3.50;99.90;;;;;;2072072;28;20033;-69
2021/12/09 03:12:25;;;;;;;12.85;5.38;;;3.50;99.90;;;;;;2071986;28;20545;-69
2021/12/09 03:13:26;;;;;;;14.02;5.80;;;3.50;99.90;;;;;;2071749;28;20022;-69
2021/12/09 03:14:27;;;;;;;10.43;5.38;;;3.50;99.90;;;;;;2071461;28;20046;-69
2021/12/09 03:15:27;;;;;;;10.07;5.47;;;3.50;99.90;;;;;;2071859;28;20026;-69
2021/12/09 03:16:29;;;;;;;12.57;5.68;;;3.50;99.90;;;;;;2071718;28;20018;-69
2021/12/09 03:17:30;;;;;;;12.80;5.22;;;3.50;99.90;;;;;;2072300;28;20026;-69
2021/12/09 03:18:31;;;;;;;11.88;5.43;;;3.50;99.90;;;;;;2071994;28;20129;-69
2021/12/09 03:19:32;;;;;;;11.40;5.38;;;3.50;99.90;;;;;;2071980;28;20409;-69
2021/12/09 03:20:32;;;;;;;12.18;5.38;;;3.50;99.90;;;;;;2071773;28;20025;-69
2021/12/09 03:21:36;;;;;;;10.48;5.30;;;3.50;99.90;;;;;;2071980;28;20026;-69
2021/12/09 03:22:39;;;;;;;13.23;5.97;;;3.50;99.90;;;;;;2071787;28;20033;-69
2021/12/09 03:23:39;;;;;;;7.82;4.80;;;3.50;99.90;;;;;;2071937;28;20474;-69
2021/12/09 03:24:40;;;;;;;9.90;5.47;;;3.50;99.90;;;;;;2071150;28;20466;-69
2021/12/09 03:25:42;;;;;;;12.07;5.30;;;3.50;99.90;;;;;;2072213;28;20185;-69
2021/12/09 03:26:54;;;;;;;10.20;5.47;;;3.50;99.90;;;;;;2071415;28;20022;-69
2021/12/09 03:27:55;;;;;;;11.80;5.95;;;3.50;99.90;;;;;;2072162;28;20034;-69
2021/12/09 03:28:58;;;;;;;7.60;4.70;;;3.50;99.90;;;;;;2071600;28;20083;-69
2021/12/09 03:29:58;;;;;;;8.02;5.28;;;3.50;99.90;;;;;;2071963;28;20105;-69
2021/12/09 03:30:59;;;;;;;13.55;5.05;;;3.50;99.90;;;;;;2072332;28;20034;-69
2021/12/09 03:32:06;;;;;;;8.50;5.40;;;3.50;99.90;;;;;;2072548;28;20052;-69
2021/12/09 03:33:06;;;;;;;15.38;6.45;;;3.50;99.90;;;;;;2072020;28;20026;-69
2021/12/09 03:34:07;;;;;;;10.13;5.30;;;3.50;99.90;;;;;;2072025;28;20121;-69
2021/12/09 03:35:10;;;;;;;9.02;4.95;;;3.40;99.90;;;;;;2070924;28;20080;-68
2021/12/09 03:36:11;;;;;;;12.75;5.88;;;3.50;99.90;;;;;;2071781;28;20018;-69
2021/12/09 03:37:19;;;;;;;10.65;5.68;;;3.50;99.90;;;;;;2079420;28;20026;-69
2021/12/09 03:38:19;;;;;;;9.50;5.50;;;3.50;99.90;;;;;;2066534;28;20062;-69
2021/12/09 03:39:22;;;;;;;16.80;5.47;;;3.40;99.90;;;;;;2071719;28;20026;-68
2021/12/09 03:40:23;;;;;;;10.35;5.78;;;3.40;99.90;;;;;;2071191;28;20025;-69
2021/12/09 03:41:24;;;;;;;10.18;5.50;;;3.40;99.90;;;;;;2071350;28;20105;-69
2021/12/09 03:42:27;;;;;;;10.35;5.53;;;3.40;99.90;;;;;;2071003;28;20072;-69
2021/12/09 03:43:30;;;;;;;8.88;4.95;;;3.40;99.90;;;;;;2071538;28;20109;-69
2021/12/09 03:44:31;;;;;;;11.82;5.43;;;3.40;99.90;;;;;;2071140;28;20032;-69
2021/12/09 03:45:31;;;;;;;12.07;5.03;;;3.40;99.90;;;;;;2071636;28;20513;-68
2021/12/09 03:46:32;;;;;;;11.38;5.10;;;3.40;99.90;;;;;;2071952;28;20493;-68
2021/12/09 03:47:34;;;;;;;8.85;5.28;;;3.40;99.90;;;;;;2071390;28;20093;-68
2021/12/09 03:48:35;;;;;;;8.13;4.60;;;3.30;99.90;;;;;;2071672;28;20410;-69
2021/12/09 03:49:36;;;;;;;11.63;6.18;;;3.40;99.90;;;;;;2071048;28;20026;-69
2021/12/09 03:50:37;;;;;;;9.50;5.13;;;3.40;99.90;;;;;;2071167;28;20022;-69
2021/12/09 03:51:38;;;;;;;9.63;5.45;;;3.40;99.90;;;;;;2070720;28;20105;-69
2021/12/09 03:52:39;;;;;;;9.90;5.30;;;3.40;99.90;;;;;;2071545;28;20022;-69
2021/12/09 03:53:40;;;;;;;10.90;5.45;;;3.40;99.90;;;;;;2071450;28;20042;-68
2021/12/09 03:54:41;;;;;;;13.68;5.85;;;3.30;99.90;;;;;;2069367;28;20042;-69
2021/12/09 03:55:42;;;;;;;13.20;5.60;;;3.30;99.90;;;;;;2071378;28;20357;-69
2021/12/09 03:56:43;;;;;;;10.25;5.45;;;3.30;99.90;;;;;;2071605;28;20017;-69
2021/12/09 03:57:44;;;;;;;13.85;6.00;;;3.30;99.90;;;;;;2071785;28;20363;-68
2021/12/09 03:58:44;;;;;;;9.93;5.30;;;3.30;99.90;;;;;;2071590;28;20033;-69
2021/12/09 03:59:46;;;;;;;10.85;5.43;;;3.30;99.90;;;;;;2079847;28;20063;-68
2021/12/09 04:00:48;;;;;;;11.73;6.05;;;3.30;99.90;;;;;;2073267;28;20022;-68
2021/12/09 04:01:49;;;;;;;11.68;5.82;;;3.30;99.90;;;;;;2071780;28;20061;-68
2021/12/09 04:02:50;;;;;;;11.38;5.38;;;3.30;99.90;;;;;;2071415;28;20026;-68
2021/12/09 04:03:50;;;;;;;12.43;5.38;;;3.30;99.90;;;;;;2071666;28;20540;-69
2021/12/09 04:04:51;;;;;;;11.77;5.70;;;3.30;99.90;;;;;;2070890;28;20033;-69
2021/12/09 04:05:52;;;;;;;11.80;5.55;;;3.30;99.90;;;;;;2071899;28;20482;-68
2021/12/09 04:06:52;;;;;;;9.85;5.43;;;3.20;99.90;;;;;;2071449;28;20026;-69
2021/12/09 04:07:53;;;;;;;8.38;4.93;;;3.30;99.90;;;;;;2071892;28;20072;-69
2021/12/09 04:08:54;;;;;;;10.63;5.70;;;3.30;99.90;;;;;;2070912;28;20378;-68
2021/12/09 04:09:54;;;;;;;8.93;4.90;;;3.30;99.90;;;;;;2071312;28;20474;-68
2021/12/09 04:10:55;;;;;;;7.40;5.10;;;3.30;99.90;;;;;;2071162;28;20026;-68
2021/12/09 04:11:56;;;;;;;9.80;5.45;;;3.30;99.90;;;;;;2070508;28;20482;-68
2021/12/09 04:12:57;;;;;;;10.30;5.32;;;3.30;99.90;;;;;;2070867;28;20038;-68
2021/12/09 04:13:57;;;;;;;14.07;6.53;;;3.20;99.90;;;;;;2071555;28;20032;-69
2021/12/09 04:14:58;;;;;;;8.63;5.15;;;3.20;99.90;;;;;;2070784;28;20034;-68
2021/12/09 04:16:01;;;;;;;11.35;5.30;;;3.20;99.90;;;;;;2071502;28;20373;-68
2021/12/09 04:17:01;;;;;;;7.03;4.65;;;3.20;99.90;;;;;;2071049;28;20030;-68
2021/12/09 04:18:03;;;;;;;12.40;5.13;;;3.20;99.90;;;;;;2071588;28;20022;-68
2021/12/09 04:19:06;;;;;;;11.07;4.82;;;3.20;99.90;;;;;;2071610;28;20116;-68
2021/12/09 04:20:08;;;;;;;6.00;4.47;;;3.20;99.90;;;;;;2071473;28;20429;-68
2021/12/09 04:21:09;;;;;;;11.30;5.32;;;3.20;99.90;;;;;;2071530;28;20044;-68
2021/12/09 04:22:09;;;;;;;8.65;5.53;;;3.20;99.90;;;;;;2071326;28;20036;-69
2021/12/09 04:23:10;;;;;;;11.75;5.07;;;3.20;99.90;;;;;;2071278;28;20615;-68
2021/12/09 04:24:14;;;;;;;7.90;4.60;;;3.20;99.90;;;;;;2071576;28;20029;-68
2021/12/09 04:25:17;;;;;;;9.05;5.20;;;3.20;99.90;;;;;;2070844;28;20080;-68
2021/12/09 04:26:18;;;;;;;11.70;4.68;;;3.20;99.90;;;;;;2071542;28;20030;-68
2021/12/09 04:27:19;;;;;;;5.38;4.53;;;3.20;99.90;;;;;;2071608;28;20108;-68
2021/12/09 04:28:20;;;;;;;11.48;5.80;;;3.10;99.90;;;;;;2071477;28;20045;-69
2021/12/09 04:29:21;;;;;;;8.93;5.25;;;3.10;99.90;;;;;;2071366;28;20474;-69
2021/12/09 04:30:24;;;;;;;10.52;5.55;;;3.10;99.90;;;;;;2071573;28;20494;-69
2021/12/09 04:31:25;;;;;;;10.18;5.40;;;3.10;99.90;;;;;;2071118;28;20054;-68
2021/12/09 04:32:26;;;;;;;11.48;6.10;;;3.10;99.90;;;;;;2071261;28;20445;-68
2021/12/09 04:33:29;;;;;;;9.85;5.22;;;3.10;99.90;;;;;;2073858;28;20045;-68
2021/12/09 04:34:30;;;;;;;11.23;5.78;;;3.10;99.90;;;;;;2082935;28;20072;-68
2021/12/09 04:35:31;;;;;;;9.90;5.45;;;3.10;99.90;;;;;;2082739;28;20082;-68
2021/12/09 04:36:32;;;;;;;13.35;4.72;;;3.10;99.90;;;;;;2072420;28;20061;-68
2021/12/09 04:37:32;;;;;;;10.98;5.45;;;3.10;99.90;;;;;;2071263;28;20097;-68
2021/12/09 04:38:33;;;;;;;11.00;5.30;;;3.00;99.90;;;;;;2071296;28;20585;-68
2021/12/09 04:39:33;;;;;;;9.40;4.72;;;3.00;99.90;;;;;;2078656;28;20013;-68
2021/12/09 04:40:34;;;;;;;13.85;5.85;;;3.00;99.90;;;;;;2079002;28;20028;-68
2021/12/09 04:41:35;;;;;;;8.25;5.32;;;3.00;99.90;;;;;;2071245;28;20022;-69
2021/12/09 04:42:36;;;;;;;13.25;4.93;;;3.00;99.90;;;;;;2069528;28;20382;-68
2021/12/09 04:43:40;;;;;;;8.18;5.13;;;3.00;99.90;;;;;;2069283;28;20022;-69
2021/12/09 04:44:41;;;;;;;12.35;5.68;;;3.00;99.90;;;;;;2068458;28;20018;-68
2021/12/09 04:45:41;;;;;;;15.13;6.20;;;3.00;99.90;;;;;;2067305;28;20125;-68
2021/12/09 04:46:42;;;;;;;14.95;5.95;;;3.00;99.90;;;;;;2071586;28;20026;-68
2021/12/09 04:47:42;;;;;;;8.05;4.88;;;3.00;99.90;;;;;;2071529;28;20359;-68
2021/12/09 04:48:43;;;;;;;9.32;5.15;;;3.00;99.90;;;;;;2071360;28;20060;-68
2021/12/09 04:49:44;;;;;;;13.57;5.43;;;3.00;99.90;;;;;;2070998;28;20030;-68
2021/12/09 04:50:45;;;;;;;15.25;6.20;;;3.00;99.90;;;;;;2070944;28;20022;-68
2021/12/09 04:51:45;;;;;;;9.70;5.57;;;2.90;99.90;;;;;;2070973;28;20037;-68
2021/12/09 04:52:46;;;;;;;6.85;4.82;;;2.90;99.90;;;;;;2077580;28;20030;-68
2021/12/09 04:53:46;;;;;;;9.20;5.05;;;2.90;99.90;;;;;;2073214;28;20028;-68
2021/12/09 04:54:47;;;;;;;11.52;5.22;;;2.90;99.90;;;;;;2077203;28;20053;-68
2021/12/09 04:55:48;;;;;;;15.88;6.15;;;2.90;99.90;;;;;;2072338;28;20053;-68
2021/12/09 04:56:48;;;;;;;10.60;5.95;;;2.90;99.90;;;;;;2071484;28;20034;-68
2021/12/09 04:57:49;;;;;;;9.63;5.57;;;2.90;99.90;;;;;;2071411;28;20025;-68
2021/12/09 04:58:50;;;;;;;11.15;5.72;;;2.90;99.90;;;;;;2071144;28;20034;-68
2021/12/09 04:59:51;;;;;;;11.20;5.57;;;2.90;99.90;;;;;;2071540;28;20026;-68
2021/12/09 05:00:53;;;;;;;12.70;5.65;;;2.90;99.90;;;;;;2071154;28;20030;-68
2021/12/09 05:01:54;;;;;;;9.23;5.70;;;2.90;99.90;;;;;;2071449;28;20045;-68
2021/12/09 05:03:58;;;;;;;12.38;6.15;;;2.90;99.90;;;;;;2072762;28;20030;-68
2021/12/09 05:04:58;;;;;;;9.00;5.32;;;2.90;99.90;;;;;;2072347;28;20066;-69
2021/12/09 05:05:59;;;;;;;13.85;6.13;;;2.90;99.90;;;;;;2073028;28;20053;-68
2021/12/09 05:07:00;;;;;;;10.85;5.88;;;2.90;99.90;;;;;;2069546;28;20054;-68
2021/12/09 05:08:01;;;;;;;9.70;5.93;;;2.90;99.90;;;;;;2065330;28;20080;-68
2021/12/09 05:09:09;;;;;;;13.82;5.80;;;2.90;99.90;;;;;;2072531;28;20034;-68
2021/12/09 05:10:09;;;;;;;12.40;5.28;;;2.90;99.90;;;;;;2072785;28;20022;-68
2021/12/09 05:11:16;;;;;;;14.02;6.20;;;2.90;99.90;;;;;;2072354;28;20084;-68
2021/12/09 05:12:19;;;;;;;11.75;5.68;;;2.90;99.90;;;;;;2073013;28;20033;-68
2021/12/09 05:13:20;;;;;;;17.73;5.88;;;2.90;99.90;;;;;;2072932;28;20022;-68
2021/12/09 05:14:22;;;;;;;11.70;5.50;;;2.90;99.90;;;;;;2072719;28;20378;-68
2021/12/09 05:15:22;;;;;;;13.00;5.68;;;2.90;99.90;;;;;;2072652;28;20036;-68
2021/12/09 05:16:23;;;;;;;11.93;5.93;;;2.90;99.90;;;;;;2072898;28;20022;-68
2021/12/09 05:17:24;;;;;;;10.43;5.57;;;2.90;99.90;;;;;;2072822;28;20033;-68
2021/12/09 05:18:26;;;;;;;10.02;5.00;;;2.90;99.90;;;;;;2072708;28;20022;-68
2021/12/09 05:19:27;;;;;;;12.82;5.32;;;2.90;99.90;;;;;;2072690;28;20025;-68
2021/12/09 05:20:28;;;;;;;9.52;4.60;;;2.90;99.90;;;;;;2072595;28;20022;-68
2021/12/09 05:21:36;;;;;;;14.75;5.18;;;2.80;99.90;;;;;;2072614;28;20030;-68
2021/12/09 05:22:37;;;;;;;8.65;5.45;;;2.80;99.90;;;;;;2069397;28;20030;-68
2021/12/09 05:23:39;;;;;;;14.98;5.63;;;2.80;99.90;;;;;;2072697;28;20045;-68
2021/12/09 05:24:40;;;;;;;15.48;5.82;;;2.80;99.90;;;;;;2072609;28;20022;-68